Time;durP1;ratioP1;P1;durP2;ratioP2;P2;SDS_P1;SDS_P2;PMS_P1;PMS_P2;Temp;Humidity;BMP_temperature;BMP_pressure;BME280_temperature;BME280_humidity;BME280_pressure;Samples;Min_cycle;Max_cycle;Signal;HPM_P1;HPM_P2
2022/01/08 00:00:56;;;;;;;;;0.00;0.00;;;;;9.08;60.37;101078.59;5070166;28;45543;-63
2022/01/08 00:03:21;;;;;;;;;0.00;0.00;;;;;9.13;60.08;101086.50;5062504;28;45896;-63
2022/01/08 00:05:48;;;;;;;;;0.00;0.00;;;;;9.13;59.96;101083.84;5060754;28;45460;-63
2022/01/08 00:08:14;;;;;;;;;0.00;0.00;;;;;9.15;60.08;101097.13;5065999;28;45462;-63
2022/01/08 00:10:40;;;;;;;;;0.00;0.00;;;;;9.11;59.87;101096.31;5076221;28;47074;-63
2022/01/08 00:13:06;;;;;;;;;0.75;0.75;;;;;9.12;59.88;101105.16;5084166;27;45674;-63
2022/01/08 00:15:32;;;;;;;;;2.00;0.00;;;;;9.08;60.06;101107.03;5062208;28;45330;-63
2022/01/08 00:17:58;;;;;;;;;0.00;0.00;;;;;9.07;59.98;101107.91;5069802;28;45214;-63
2022/01/08 00:20:23;;;;;;;;;0.00;0.00;;;;;9.08;59.93;101125.66;5066313;28;45328;-63
2022/01/08 00:22:53;;;;;;;;;0.00;0.00;;;;;9.04;59.98;101126.66;5062370;28;45321;-63
2022/01/08 00:25:18;;;;;;;;;0.00;0.00;;;;;9.11;59.64;101135.41;5061947;28;45462;-63
2022/01/08 00:27:44;;;;;;;;;0.75;0.00;;;;;9.12;59.97;101137.13;5065075;28;45483;-63
2022/01/08 00:30:10;;;;;;;;;0.00;0.00;;;;;9.14;59.90;101137.97;5068522;28;45369;-63
2022/01/08 00:32:35;;;;;;;;;0.00;0.00;;;;;9.13;59.56;101139.75;5071706;28;45432;-62
2022/01/08 00:35:01;;;;;;;;;0.00;0.00;;;;;9.13;59.76;101137.09;5075814;28;45399;-63
2022/01/08 00:37:27;;;;;;;;;0.00;0.00;;;;;9.17;59.40;101138.81;5064859;28;45330;-63
2022/01/08 00:39:52;;;;;;;;;0.00;0.00;;;;;9.18;59.53;101135.22;5060415;28;48334;-63
2022/01/08 00:42:17;;;;;;;;;0.00;0.00;;;;;9.19;59.23;101136.97;5072210;28;45304;-63
2022/01/08 00:44:43;;;;;;;;;0.00;0.00;;;;;9.19;59.69;101146.78;5064816;28;45248;-63
2022/01/08 00:47:08;;;;;;;;;0.00;0.00;;;;;9.24;59.36;101156.41;5061950;28;45234;-63
2022/01/08 00:49:34;;;;;;;;;0.00;0.00;;;;;9.22;59.59;101154.69;5072180;28;45423;-63
2022/01/08 00:52:00;;;;;;;;;0.00;0.00;;;;;9.20;59.75;101162.69;5071558;28;45571;-63
2022/01/08 00:54:25;;;;;;;;;0.00;0.00;;;;;9.19;59.55;101165.41;5061747;28;45437;-63
2022/01/08 00:56:51;;;;;;;;;0.00;0.00;;;;;9.19;59.71;101168.94;5069016;28;45468;-63
2022/01/08 00:59:17;;;;;;;;;0.50;0.00;;;;;9.21;59.79;101179.56;5061463;28;46284;-63
2022/01/08 01:01:42;;;;;;;;;0.00;0.00;;;;;9.16;59.63;101176.13;5061567;28;45318;-63
2022/01/08 01:04:08;;;;;;;;;1.00;0.00;;;;;9.19;59.74;101176.94;5061600;28;45369;-63
2022/01/08 01:06:33;;;;;;;;;2.00;0.50;;;;;9.24;59.74;101190.19;5061620;28;45391;-63
2022/01/08 01:08:58;;;;;;;;;1.00;1.00;;;;;9.25;59.63;101190.16;5062541;28;45454;-63
2022/01/08 01:11:24;;;;;;;;;0.00;0.00;;;;;9.25;59.47;101190.16;5060429;28;45358;-63
2022/01/08 01:13:49;;;;;;;;;0.00;0.00;;;;;9.19;59.88;101182.25;5074797;28;45465;-63
2022/01/08 01:16:14;;;;;;;;;1.25;0.00;;;;;9.24;59.52;101191.03;5061281;28;45412;-63
2022/01/08 01:18:40;;;;;;;;;0.00;0.00;;;;;9.27;59.56;101193.66;5070351;28;46232;-63
2022/01/08 01:21:05;;;;;;;;;0.00;0.00;;;;;9.26;59.75;101199.00;5061265;28;45279;-63
2022/01/08 01:23:38;;;;;;;;;0.25;0.25;;;;;9.22;59.17;101183.97;5070638;28;45657;-63
2022/01/08 01:26:08;;;;;;;;;0.00;0.00;;;;;9.26;59.47;101191.88;5061122;28;45315;-63
2022/01/08 01:47:15;;;;;;;;;0.00;0.00;;;;;9.28;59.06;101189.19;5060949;28;45287;-62
2022/01/08 01:49:44;;;;;;;;;1.00;1.00;;;;;9.27;59.24;101185.66;5072679;28;45484;-63
2022/01/08 01:52:13;;;;;;;;;0.00;0.00;;;;;9.26;58.87;101189.22;5069732;28;45668;-63
2022/01/08 01:54:39;;;;;;;;;0.00;0.00;;;;;9.24;59.07;101188.38;5060685;28;45490;-62
2022/01/08 01:57:06;;;;;;;;;0.00;0.00;;;;;9.26;58.76;101196.34;5059916;28;45266;-63
2022/01/08 01:59:32;;;;;;;;;0.00;0.00;;;;;9.25;58.88;101195.47;5088712;27;47246;-63
2022/01/08 02:01:58;;;;;;;;;0.00;0.00;;;;;9.25;59.02;101198.13;5060539;28;45172;-63
2022/01/08 02:04:23;;;;;;;;;1.00;0.00;;;;;9.27;59.06;101206.97;5060529;28;45501;-63
2022/01/08 02:06:49;;;;;;;;;0.50;0.00;;;;;9.22;58.80;101183.97;5063967;28;45509;-62
2022/01/08 02:09:14;;;;;;;;;0.00;0.00;;;;;9.28;59.00;101186.53;5061207;28;46145;-63
2022/01/08 02:11:59;;;;;;;;;0.00;0.00;;;;;9.28;59.04;101186.53;5065824;28;45428;-63
2022/01/08 02:14:27;;;;;;;;;2.00;1.00;;;;;9.27;58.71;101185.66;5068923;28;45332;-63
2022/01/08 02:16:52;;;;;;;;;1.00;1.00;;;;;9.27;58.77;101180.34;5078126;28;45406;-63
2022/01/08 02:19:18;;;;;;;;;1.00;1.00;;;;;9.28;58.29;101187.41;5069652;28;45900;-62
2022/01/08 02:22:03;;;;;;;;;0.00;0.00;;;;;9.32;58.49;101195.34;5069288;28;45369;-63
2022/01/08 02:24:29;;;;;;;;;1.00;1.00;;;;;9.35;58.75;101196.16;5071125;28;45378;-63
2022/01/08 02:26:55;;;;;;;;;1.00;1.00;;;;;9.34;58.20;101198.84;5060245;28;45497;-62
2022/01/08 02:29:22;;;;;;;;;0.00;0.00;;;;;9.36;58.71;101210.38;5060952;28;45472;-63
2022/01/08 02:32:06;;;;;;;;;0.00;0.00;;;;;9.35;58.55;101209.47;5072468;28;45580;-63
2022/01/08 02:34:33;;;;;;;;;0.00;0.00;;;;;9.36;58.46;101211.22;5073441;28;45339;-63
2022/01/08 02:36:59;;;;;;;;;1.50;1.00;;;;;9.34;58.08;101206.84;5060344;28;45290;-63
2022/01/08 02:39:26;;;;;;;;;0.00;0.00;;;;;9.34;58.83;101209.50;5059996;28;45440;-62
2022/01/08 02:41:56;;;;;;;;;0.75;0.50;;;;;9.35;58.39;101214.78;5066979;28;45669;-63
2022/01/08 02:44:23;;;;;;;;;0.25;0.25;;;;;9.38;58.66;101211.22;5059647;28;45286;-63
2022/01/08 02:46:49;;;;;;;;;0.50;0.50;;;;;9.35;58.04;101206.81;5069332;28;45408;-63
2022/01/08 02:49:14;;;;;;;;;0.00;0.00;;;;;9.38;58.37;101214.75;5067196;28;46267;-63
2022/01/08 02:51:40;;;;;;;;;0.00;0.00;;;;;9.33;58.42;101191.78;5072440;28;45231;-63
2022/01/08 02:54:08;;;;;;;;;0.00;0.00;;;;;9.36;58.39;101205.91;5059633;28;45416;-63
2022/01/08 02:56:40;;;;;;;;;0.25;0.25;;;;;9.37;58.24;101215.66;5059623;28;45268;-63
2022/01/08 02:59:06;;;;;;;;;0.00;0.00;;;;;9.36;58.18;101224.56;5059743;28;45488;-63
2022/01/08 03:01:31;;;;;;;;;0.00;0.00;;;;;9.36;57.87;101221.03;5063252;28;45427;-63
2022/01/08 03:03:57;;;;;;;;;0.00;0.00;;;;;9.32;57.75;101224.63;5074968;28;45645;-63
2022/01/08 03:06:23;;;;;;;;;1.00;0.00;;;;;9.29;57.92;101228.25;5059781;28;45454;-63
2022/01/08 03:08:49;;;;;;;;;0.00;0.00;;;;;9.27;58.32;101220.28;5059689;28;45259;-63
2022/01/08 03:11:14;;;;;;;;;1.00;0.00;;;;;9.25;58.28;101219.44;5059526;28;45330;-63
2022/01/08 03:13:40;;;;;;;;;1.00;0.00;;;;;9.23;58.21;101221.25;5059588;28;45323;-63
2022/01/08 03:16:05;;;;;;;;;0.00;0.00;;;;;9.28;58.30;101215.84;5059652;28;45309;-63
2022/01/08 03:18:30;;;;;;;;;1.00;0.00;;;;;9.21;58.20;101200.88;5068878;28;45847;-63
2022/01/08 03:21:11;;;;;;;;;0.00;0.00;;;;;9.25;58.07;101206.13;5059597;28;45312;-63
2022/01/08 03:23:43;;;;;;;;;0.25;0.25;;;;;9.23;58.34;101202.59;5059674;28;45410;-63
2022/01/08 03:26:09;;;;;;;;;0.00;0.00;;;;;9.17;58.63;101197.41;5059485;28;45342;-63
2022/01/08 03:28:35;;;;;;;;;0.00;0.00;;;;;9.22;58.46;101199.97;5058976;28;45249;-63
2022/01/08 03:31:00;;;;;;;;;1.25;0.00;;;;;9.25;58.11;101202.56;5070990;28;45470;-63
2022/01/08 03:33:26;;;;;;;;;0.75;0.50;;;;;9.21;58.09;101195.56;5074663;27;45531;-63
2022/01/08 03:35:51;;;;;;;;;1.00;0.00;;;;;9.24;58.54;101201.69;5059376;28;45391;-63
2022/01/08 03:38:16;;;;;;;;;0.00;0.00;;;;;9.24;58.20;101198.16;5059230;28;45473;-63
2022/01/08 03:40:42;;;;;;;;;0.00;0.00;;;;;9.24;58.33;101193.72;5066492;28;45927;-63
2022/01/08 03:43:07;;;;;;;;;0.00;0.00;;;;;9.16;58.39;101192.09;5058122;28;45354;-63
2022/01/08 03:45:32;;;;;;;;;0.50;0.00;;;;;9.11;58.23;101183.34;5057937;28;45903;-63
2022/01/08 03:50:26;;;;;;;;;1.00;1.00;;;;;9.22;58.14;101210.63;5075069;28;45620;-63
2022/01/08 03:52:51;;;;;;;;;2.00;0.00;;;;;9.18;58.27;101217.78;5062274;28;45352;-63
2022/01/08 03:55:17;;;;;;;;;0.25;0.25;;;;;9.19;58.26;101214.22;5058719;28;45521;-63
2022/01/08 03:57:42;;;;;;;;;0.00;0.00;;;;;9.19;58.13;101216.91;5058563;28;45414;-63
2022/01/08 04:00:08;;;;;;;;;2.50;0.00;;;;;9.16;58.28;101211.63;5066996;28;45213;-63
2022/01/08 04:02:33;;;;;;;;;0.75;0.75;;;;;9.11;58.11;101199.31;5061640;28;45330;-62
2022/01/08 04:04:58;;;;;;;;;1.00;0.25;;;;;9.15;58.48;101201.88;5062317;28;45512;-63
2022/01/08 04:07:24;;;;;;;;;0.00;0.00;;;;;9.09;58.00;101200.22;5077841;28;46997;-62
2022/01/08 04:09:49;;;;;;;;;2.00;0.00;;;;;9.09;58.29;101197.53;5070204;28;45338;-63
2022/01/08 04:12:20;;;;;;;;;1.50;1.00;;;;;9.03;58.53;101202.09;5062389;28;45449;-62
2022/01/08 04:14:55;;;;;;;;;0.75;0.75;;;;;9.01;58.25;101204.78;5062165;28;45360;-63
2022/01/08 04:17:20;;;;;;;;;0.00;0.00;;;;;8.99;58.36;101214.59;5062542;28;45401;-63
2022/01/08 04:19:46;;;;;;;;;2.00;1.00;;;;;9.03;58.48;101223.41;5082895;28;45278;-62
2022/01/08 04:22:13;;;;;;;;;1.00;1.00;;;;;9.05;58.33;101218.94;5064996;28;45512;-63
2022/01/08 04:24:40;;;;;;;;;0.75;0.75;;;;;9.00;58.66;101202.16;5065297;28;45224;-63
2022/01/08 04:27:06;;;;;;;;;2.00;1.00;;;;;8.97;58.64;101205.78;5080842;28;48750;-63
2022/01/08 04:29:32;;;;;;;;;2.00;0.00;;;;;9.01;58.45;101209.25;5070023;28;45378;-63
2022/01/08 04:31:57;;;;;;;;;1.50;0.00;;;;;8.99;58.04;101203.09;5077254;27;45458;-63
2022/01/08 04:34:23;;;;;;;;;1.00;0.50;;;;;8.96;58.01;101208.47;5070514;28;45510;-62
2022/01/08 04:36:48;;;;;;;;;0.75;0.75;;;;;8.96;58.46;101209.34;5077307;28;46966;-63
2022/01/08 04:39:13;;;;;;;;;0.00;0.00;;;;;8.93;58.32;101198.72;5062088;28;45441;-63
2022/01/08 04:41:41;;;;;;;;;1.00;1.00;;;;;8.94;58.39;101204.94;5063407;28;45449;-63
2022/01/08 04:44:07;;;;;;;;;2.75;1.00;;;;;8.92;58.56;101202.31;5072552;28;45566;-63
2022/01/08 04:46:33;;;;;;;;;1.00;1.00;;;;;8.89;58.31;101197.03;5076566;28;45247;-63
2022/01/08 04:48:58;;;;;;;;;2.00;0.50;;;;;8.83;58.59;101197.16;5067036;28;45307;-63
2022/01/08 04:51:23;;;;;;;;;0.00;0.00;;;;;8.86;58.58;101197.09;5076709;27;45145;-62
2022/01/08 04:53:49;;;;;;;;;0.00;0.00;;;;;8.86;58.95;101208.63;5068554;28;45401;-63
2022/01/08 04:56:14;;;;;;;;;0.00;0.00;;;;;8.86;58.74;101218.41;5062672;28;45310;-63
2022/01/08 04:58:40;;;;;;;;;1.25;0.00;;;;;8.84;58.85;101225.53;5071882;28;45314;-63
2022/01/08 05:01:10;;;;;;;;;0.00;0.00;;;;;8.83;59.35;101231.75;5062770;28;45463;-62
2022/01/08 05:03:36;;;;;;;;;0.00;0.00;;;;;8.84;59.34;101231.72;5067508;28;45469;-62
2022/01/08 05:06:01;;;;;;;;;0.75;0.75;;;;;8.83;59.40;101229.09;5061297;28;46022;-63
2022/01/08 05:08:26;;;;;;;;;1.00;1.00;;;;;8.87;59.37;101252.97;5061574;28;45283;-62
2022/01/08 05:10:52;;;;;;;;;1.00;0.00;;;;;8.88;59.17;101241.41;5061636;28;45291;-63
2022/01/08 05:13:17;;;;;;;;;1.00;0.00;;;;;8.89;59.65;101250.28;5061383;28;45217;-62
2022/01/08 05:15:42;;;;;;;;;0.25;0.25;;;;;8.93;59.23;101245.78;5066982;28;46100;-63
2022/01/08 05:18:09;;;;;;;;;1.00;0.00;;;;;8.94;59.42;101226.22;5068353;28;45345;-63
2022/01/08 05:20:38;;;;;;;;;1.50;0.75;;;;;8.92;59.64;101218.28;5077564;28;45209;-63
2022/01/08 05:23:04;;;;;;;;;0.00;0.00;;;;;8.97;59.62;101220.84;5061445;28;45272;-62
2022/01/08 05:25:30;;;;;;;;;0.00;0.00;;;;;8.92;59.65;101214.72;5060842;28;46044;-62
2022/01/08 05:27:57;;;;;;;;;3.00;0.00;;;;;8.96;59.96;101221.78;5061138;28;45342;-62
2022/01/08 05:30:25;;;;;;;;;1.00;0.00;;;;;9.02;59.97;101233.19;5070601;28;45404;-62
2022/01/08 05:32:52;;;;;;;;;1.00;0.00;;;;;9.00;59.77;101220.78;5069085;27;45387;-63
2022/01/08 05:35:18;;;;;;;;;2.00;0.00;;;;;9.05;59.93;101229.56;5060887;28;46356;-63
2022/01/08 05:37:44;;;;;;;;;0.00;0.00;;;;;9.05;59.36;101224.25;5076623;28;45771;-62
2022/01/08 05:40:11;;;;;;;;;0.00;0.00;;;;;9.03;59.82;101204.78;5060933;28;45290;-63
2022/01/08 05:42:36;;;;;;;;;3.25;0.00;;;;;9.08;59.78;101208.22;5061413;28;45560;-62
2022/01/08 05:45:03;;;;;;;;;2.00;0.25;;;;;9.06;59.94;101204.72;5060544;28;45262;-63
2022/01/08 05:47:31;;;;;;;;;1.00;0.00;;;;;9.07;59.80;101206.44;5060146;28;45484;-62
2022/01/08 05:49:56;;;;;;;;;1.00;1.00;;;;;9.01;59.78;101188.81;5077346;28;45422;-63
2022/01/08 05:52:22;;;;;;;;;0.00;0.00;;;;;9.04;59.83;101196.75;5068179;28;45356;-63
2022/01/08 05:54:48;;;;;;;;;0.50;0.50;;;;;9.01;59.99;101195.94;5060435;28;45535;-62
2022/01/08 05:57:13;;;;;;;;;1.25;0.25;;;;;9.02;60.12;101179.94;5076056;28;45519;-63
2022/01/08 05:59:38;;;;;;;;;1.00;1.00;;;;;9.07;60.13;101185.16;5060605;28;45275;-63
2022/01/08 06:02:05;;;;;;;;;0.00;0.00;;;;;9.07;59.80;101179.81;5064342;28;45498;-63
2022/01/08 06:04:31;;;;;;;;;1.00;1.00;;;;;9.05;60.03;101182.53;5072875;28;47244;-63
2022/01/08 06:06:56;;;;;;;;;1.00;1.00;;;;;9.12;60.48;101193.06;5073066;28;45293;-63
2022/01/08 06:09:21;;;;;;;;;0.00;0.00;;;;;9.11;59.87;101200.19;5073350;28;45161;-63
2022/01/08 06:11:47;;;;;;;;;2.00;1.00;;;;;9.11;60.01;101202.84;5071344;28;45375;-62
2022/01/08 06:14:12;;;;;;;;;0.00;0.00;;;;;9.12;59.96;101204.63;5060008;28;45211;-63
2022/01/08 06:16:38;;;;;;;;;0.00;0.00;;;;;9.14;59.95;101215.19;5060393;28;45330;-63
2022/01/08 06:19:08;;;;;;;;;1.00;0.00;;;;;9.15;59.71;101209.84;5075342;28;45155;-63
2022/01/08 06:21:35;;;;;;;;;0.25;0.25;;;;;9.11;60.02;101197.53;5066750;28;45310;-63
2022/01/08 06:24:00;;;;;;;;;1.00;1.00;;;;;9.15;60.28;101195.66;5059642;28;46343;-62
2022/01/08 06:26:26;;;;;;;;;2.00;0.75;;;;;9.15;59.82;101187.69;5065970;28;45392;-62
2022/01/08 06:28:52;;;;;;;;;0.25;0.25;;;;;9.14;59.94;101177.91;5060894;27;45284;-63
2022/01/08 06:31:19;;;;;;;;;1.00;1.00;;;;;9.15;60.18;101179.69;5074093;28;45370;-63
2022/01/08 06:33:44;;;;;;;;;0.00;0.00;;;;;9.16;59.64;101179.66;5060772;28;45296;-62
2022/01/08 06:36:10;;;;;;;;;1.00;1.00;;;;;9.13;59.73;101174.38;5060170;28;45150;-63
2022/01/08 06:38:35;;;;;;;;;1.25;1.25;;;;;9.12;60.02;101187.72;5060185;28;45224;-63
2022/01/08 06:41:00;;;;;;;;;1.75;1.00;;;;;9.06;59.91;101186.06;5065084;28;45201;-63
2022/01/08 06:43:26;;;;;;;;;4.00;1.00;;;;;9.03;60.07;101183.47;5069676;28;46216;-62
2022/01/08 06:45:51;;;;;;;;;3.50;1.00;;;;;9.01;59.95;101179.97;5059860;28;45392;-63
2022/01/08 06:48:16;;;;;;;;;1.75;1.25;;;;;8.99;59.81;101176.47;5075018;28;45369;-63
2022/01/08 06:50:42;;;;;;;;;3.75;2.00;;;;;8.98;60.35;101154.25;5066857;28;45322;-63
2022/01/08 06:53:07;;;;;;;;;4.00;2.75;;;;;9.04;60.12;101163.94;5059718;28;45418;-63
2022/01/08 06:55:32;;;;;;;;;1.50;1.50;;;;;9.05;60.26;101165.66;5059920;28;45293;-62
2022/01/08 06:57:59;;;;;;;;;2.00;2.00;;;;;9.08;60.65;101162.94;5062842;28;45960;-63
2022/01/08 07:00:24;;;;;;;;;2.00;2.00;;;;;9.08;60.01;101162.94;5067775;27;45374;-63
2022/01/08 07:02:50;;;;;;;;;2.00;2.00;;;;;9.08;60.36;101166.47;5059778;28;45321;-62
2022/01/08 07:05:15;;;;;;;;;1.00;1.00;;;;;9.13;60.10;101169.06;5059810;28;45307;-63
2022/01/08 07:07:40;;;;;;;;;1.50;1.50;;;;;9.12;60.17;101166.41;5059700;28;45455;-63
2022/01/08 07:10:06;;;;;;;;;3.50;2.25;;;;;9.13;60.52;101154.88;5070104;28;45558;-63
2022/01/08 07:12:32;;;;;;;;;3.50;3.50;;;;;9.13;60.25;101152.22;5058863;28;48320;-63
2022/01/08 07:14:57;;;;;;;;;3.00;1.50;;;;;9.18;59.86;101155.66;5064557;28;45370;-63
2022/01/08 07:17:22;;;;;;;;;2.00;2.00;;;;;9.16;60.06;101147.69;5061045;27;45279;-63
2022/01/08 07:19:48;;;;;;;;;0.25;0.25;;;;;9.18;59.97;101145.00;5079903;28;45644;-63
2022/01/08 07:22:13;;;;;;;;;4.00;1.25;;;;;9.19;60.14;101142.31;5061708;28;45955;-62
2022/01/08 07:24:38;;;;;;;;;2.00;1.75;;;;;9.17;60.37;101138.81;5059420;28;45264;-63
2022/01/08 07:27:04;;;;;;;;;2.00;2.00;;;;;9.19;60.14;101133.47;5059299;28;45285;-63
2022/01/08 07:29:29;;;;;;;;;2.00;1.25;;;;;9.18;60.12;101126.38;5062573;28;46142;-63
2022/01/08 07:31:55;;;;;;;;;1.25;1.25;;;;;9.21;60.27;101126.31;5069997;27;46888;-62
2022/01/08 07:34:20;;;;;;;;;1.00;1.00;;;;;9.22;60.66;101126.28;5070422;28;45349;-62
2022/01/08 07:36:45;;;;;;;;;1.00;1.00;;;;;9.21;60.44;101112.97;5063085;28;45453;-63
2022/01/08 07:39:11;;;;;;;;;2.50;1.50;;;;;9.20;60.72;101105.88;5062927;28;45303;-63
2022/01/08 07:41:36;;;;;;;;;1.25;1.00;;;;;9.16;60.84;101102.41;5068456;28;46001;-63
2022/01/08 07:44:01;;;;;;;;;2.50;1.00;;;;;9.20;60.80;101111.22;5062674;28;45426;-62
2022/01/08 07:46:27;;;;;;;;;1.00;1.00;;;;;9.19;60.76;101115.69;5062951;28;45437;-62
2022/01/08 07:48:52;;;;;;;;;1.50;1.50;;;;;9.12;60.83;101097.19;5067042;28;46167;-63
2022/01/08 07:51:18;;;;;;;;;1.75;1.75;;;;;9.19;61.15;101115.69;5076162;27;45380;-62
2022/01/08 07:53:43;;;;;;;;;2.00;1.00;;;;;9.19;61.07;101120.13;5083481;27;44979;-62
2022/01/08 07:56:09;;;;;;;;;4.00;1.00;;;;;9.20;61.08;101120.06;5083903;28;45441;-63
2022/01/08 07:58:34;;;;;;;;;4.00;3.00;;;;;9.21;61.25;101116.50;5082141;27;45355;-62
2022/01/08 08:01:00;;;;;;;;;4.00;3.00;;;;;9.22;61.16;101109.41;5075313;28;47154;-63
2022/01/08 08:03:25;;;;;;;;;2.00;2.00;;;;;9.18;61.38;101089.94;5062400;28;45331;-62
2022/01/08 08:05:50;;;;;;;;;6.75;3.25;;;;;9.17;61.65;101087.31;5065734;28;45303;-62
2022/01/08 08:08:17;;;;;;;;;4.25;2.25;;;;;9.19;61.08;101090.84;5080786;28;45310;-63
2022/01/08 08:10:47;;;;;;;;;3.50;3.50;;;;;9.18;61.29;101089.94;5074129;28;45246;-63
2022/01/08 08:13:13;;;;;;;;;6.00;2.25;;;;;9.17;61.37;101089.97;5065977;28;45973;-63
2022/01/08 08:15:38;;;;;;;;;3.00;3.00;;;;;9.19;61.83;101082.84;5069115;28;45525;-64
2022/01/08 08:18:03;;;;;;;;;6.50;2.75;;;;;9.19;61.42;101094.38;5078876;27;45549;-64
2022/01/08 08:20:29;;;;;;;;;6.00;3.75;;;;;9.23;61.59;101076.53;5076913;28;45359;-64
2022/01/08 08:22:54;;;;;;;;;3.75;3.00;;;;;9.15;61.62;101063.38;5070593;28;45441;-64
2022/01/08 08:25:19;;;;;;;;;2.00;2.00;;;;;9.19;61.58;101069.53;5064219;28;47125;-64
2022/01/08 08:27:45;;;;;;;;;3.00;3.00;;;;;9.24;62.06;101076.50;5068520;28;45549;-64
2022/01/08 08:30:11;;;;;;;;;1.25;1.25;;;;;9.24;61.84;101078.28;5079112;28;45428;-64
2022/01/08 08:32:37;;;;;;;;;3.25;2.00;;;;;9.24;62.02;101065.84;5078729;28;45658;-64
2022/01/08 08:35:03;;;;;;;;;3.00;3.00;;;;;9.26;61.97;101064.03;5067969;28;45763;-64
2022/01/08 08:37:29;;;;;;;;;3.25;2.00;;;;;9.23;61.97;101047.22;5070113;27;45579;-64
2022/01/08 08:39:54;;;;;;;;;3.75;3.75;;;;;9.27;62.39;101048.91;5069145;28;45287;-63
2022/01/08 08:42:20;;;;;;;;;5.50;3.75;;;;;9.25;62.28;101043.63;5061910;28;45426;-64
2022/01/08 08:44:45;;;;;;;;;2.75;2.75;;;;;9.28;62.27;101045.34;5069011;28;45240;-64
2022/01/08 08:47:10;;;;;;;;;4.75;4.00;;;;;9.27;62.80;101038.25;5060977;28;45639;-65
2022/01/08 08:49:36;;;;;;;;;8.00;3.75;;;;;9.27;62.45;101035.59;5075860;28;46951;-64
2022/01/08 08:52:02;;;;;;;;;5.50;3.00;;;;;9.34;62.65;101039.88;5072938;28;45390;-63
2022/01/08 08:54:27;;;;;;;;;5.00;3.25;;;;;9.35;62.74;101035.41;5070955;27;45537;-64
2022/01/08 08:56:53;;;;;;;;;8.00;6.50;;;;;9.35;62.64;101027.44;5075168;27;46133;-64
2022/01/08 08:59:19;;;;;;;;;4.75;4.75;;;;;9.37;63.06;101022.94;5075608;28;45581;-64
2022/01/08 09:01:44;;;;;;;;;6.00;5.00;;;;;9.32;62.91;101008.84;5073755;28;45384;-64
2022/01/08 09:04:09;;;;;;;;;5.25;5.25;;;;;9.38;62.71;101020.25;5065282;28;45381;-64
2022/01/08 09:06:35;;;;;;;;;7.00;5.25;;;;;9.40;63.12;101029.06;5074467;28;46856;-63
2022/01/08 09:09:00;;;;;;;;;7.00;4.75;;;;;9.40;63.19;101023.72;5068753;27;45476;-64
2022/01/08 09:11:26;;;;;;;;;8.00;5.00;;;;;9.43;63.36;101015.69;5074598;28;45389;-64
2022/01/08 09:13:52;;;;;;;;;9.00;5.50;;;;;9.46;63.12;101018.28;5063837;28;45472;-64
2022/01/08 09:16:17;;;;;;;;;13.75;8.00;;;;;9.46;62.99;101006.75;5064820;28;45319;-64
2022/01/08 09:18:43;;;;;;;;;4.75;4.25;;;;;9.52;63.18;101008.38;5071382;28;45437;-64
2022/01/08 09:21:10;;;;;;;;;8.00;8.00;;;;;9.55;63.58;101005.66;5068477;27;45211;-64
2022/01/08 09:23:37;;;;;;;;;9.50;7.75;;;;;9.48;63.59;100988.06;5061380;28;45388;-64
2022/01/08 09:26:03;;;;;;;;;7.75;4.00;;;;;9.52;63.70;100979.97;5069118;28;46032;-64
2022/01/08 09:28:29;;;;;;;;;8.75;7.00;;;;;9.54;64.26;100974.56;5067065;28;45658;-64
2022/01/08 09:30:55;;;;;;;;;4.50;4.50;;;;;9.54;64.04;100983.47;5078245;28;45347;-64
2022/01/08 09:33:21;;;;;;;;;6.25;4.50;;;;;9.59;64.38;100989.56;5060707;28;45402;-64
2022/01/08 09:35:47;;;;;;;;;9.25;7.75;;;;;9.58;64.13;100982.47;5069811;28;45577;-64
2022/01/08 09:38:13;;;;;;;;;5.25;5.25;;;;;9.56;64.14;100978.97;5064329;27;46428;-64
2022/01/08 09:40:38;;;;;;;;;5.00;3.75;;;;;9.61;64.71;100984.19;5063924;28;45418;-64
2022/01/08 09:43:04;;;;;;;;;6.25;6.25;;;;;9.60;64.92;100971.75;5068345;28;45916;-66
2022/01/08 09:45:30;;;;;;;;;4.25;4.00;;;;;9.63;64.66;100977.88;5071483;28;45494;-66
2022/01/08 09:47:55;;;;;;;;;7.50;5.00;;;;;9.66;64.42;100979.63;5061587;27;47363;-66
2022/01/08 09:50:20;;;;;;;;;7.75;7.75;;;;;9.67;64.67;100965.34;5070943;28;45769;-65
2022/01/08 09:52:46;;;;;;;;;6.00;6.00;;;;;9.72;64.71;100966.16;5066902;28;45294;-66
2022/01/08 09:55:11;;;;;;;;;6.50;6.50;;;;;9.72;65.12;100949.25;5073324;28;45675;-67
2022/01/08 09:57:37;;;;;;;;;6.00;4.50;;;;;9.69;65.09;100930.66;5074052;28;45570;-66
2022/01/08 10:00:10;;;;;;;;;8.75;7.00;;;;;9.80;64.89;100944.59;5070807;28;45412;-66
2022/01/08 10:02:36;;;;;;;;;8.50;6.75;;;;;9.81;65.22;100936.56;5077675;28;45341;-66
2022/01/08 10:05:09;;;;;;;;;5.25;5.25;;;;;9.81;65.26;100927.69;5076533;28;45299;-67
2022/01/08 10:07:34;;;;;;;;;8.25;4.50;;;;;9.85;65.36;100926.69;5076781;27;46707;-66
2022/01/08 10:10:17;;;;;;;;;6.75;4.50;;;;;9.90;65.27;100913.25;5074222;28;45352;-67
2022/01/08 10:13:01;;;;;;;;;7.25;7.25;;;;;9.90;65.50;100906.13;5073237;27;45256;-66
2022/01/08 10:18:31;;;;;;;;;8.75;6.00;;;;;9.97;66.10;100905.06;5062683;28;45418;-64
2022/01/08 10:20:58;;;;;;;;;6.75;6.75;;;;;9.94;65.82;100889.13;5070601;27;45593;-64
2022/01/08 10:23:28;;;;;;;;;7.50;7.50;;;;;9.98;66.07;100896.13;5061422;27;45409;-64
2022/01/08 10:26:07;;;;;;;;;8.50;6.75;;;;;10.05;66.20;100903.97;5068901;27;45599;-64
2022/01/08 10:28:54;;;;;;;;;9.25;8.00;;;;;10.10;66.44;100888.69;5064981;27;46254;-64
2022/01/08 10:31:27;;;;;;;;;9.50;4.50;;;;;10.12;66.05;100889.53;5066091;27;47080;-64
2022/01/08 10:34:13;;;;;;;;;9.50;8.00;;;;;10.13;66.48;100886.81;5066104;27;45312;-64
2022/01/08 10:36:47;;;;;;;;;5.00;4.00;;;;;10.17;66.63;100880.50;5068193;27;45526;-64
2022/01/08 10:39:20;;;;;;;;;4.25;4.00;;;;;10.22;66.50;100879.47;5065502;27;46086;-64
2022/01/08 10:41:47;;;;;;;;;7.75;4.75;;;;;10.20;66.95;100871.50;5071511;27;45846;-64
2022/01/08 10:44:17;;;;;;;;;6.00;2.50;;;;;10.20;66.27;100856.38;5067876;27;45346;-64
2022/01/08 10:46:53;;;;;;;;;4.00;3.00;;;;;10.29;66.98;100865.91;5063855;27;45490;-64
2022/01/08 10:49:47;;;;;;;;;3.00;3.00;;;;;10.31;67.15;100852.53;5062309;27;46285;-64
2022/01/08 10:52:19;;;;;;;;;2.25;2.25;;;;;10.35;67.03;100844.41;5066194;27;45792;-63
2022/01/08 10:54:57;;;;;;;;;9.75;5.00;;;;;10.36;67.34;100837.28;5076089;27;45374;-65
2022/01/08 10:57:37;;;;;;;;;3.50;3.50;;;;;10.38;66.78;100825.63;5070152;27;45365;-61
2022/01/08 11:00:05;;;;;;;;;5.25;4.00;;;;;10.38;67.26;100822.97;5074227;27;45349;-63
2022/01/08 11:02:31;;;;;;;;;5.50;5.50;;;;;10.38;67.34;100806.09;5066380;27;45342;-63
2022/01/08 11:04:57;;;;;;;;;8.50;5.25;;;;;10.36;67.79;100800.81;5076035;27;45663;-68
2022/01/08 11:07:27;;;;;;;;;6.25;4.00;;;;;10.42;67.30;100790.84;5074099;27;45445;-62
2022/01/08 11:10:06;;;;;;;;;5.50;3.75;;;;;10.46;67.49;100795.19;5082513;27;46346;-64
2022/01/08 11:12:36;;;;;;;;;5.75;3.00;;;;;10.48;67.66;100788.88;5074139;27;46065;-63
2022/01/08 11:17:55;;;;;;;;;10.00;4.50;;;;;10.51;67.58;100774.56;5066916;27;45804;-70
2022/01/08 11:20:24;;;;;;;;;3.50;3.50;;;;;10.54;67.80;100761.09;5068309;27;46351;-61
2022/01/08 11:22:53;;;;;;;;;6.00;4.00;;;;;10.54;67.14;100747.75;5073912;27;45473;-61
2022/01/08 11:25:21;;;;;;;;;7.75;6.25;;;;;10.51;67.57;100737.22;5072239;27;45429;-61
2022/01/08 11:28:11;;;;;;;;;3.00;3.00;;;;;10.59;67.36;100744.94;5075810;27;45686;-61
2022/01/08 11:30:40;;;;;;;;;9.75;5.50;;;;;10.59;67.40;100736.94;5067620;27;46088;-61
2022/01/08 11:33:13;;;;;;;;;7.50;4.00;;;;;10.59;67.95;100729.78;5070521;27;45641;-64
2022/01/08 11:35:40;;;;;;;;;4.75;2.50;;;;;10.58;67.77;100717.38;5073346;27;45593;-61
2022/01/08 11:38:07;;;;;;;;;5.25;4.00;;;;;10.61;68.03;100719.97;5076630;27;45433;-60
2022/01/08 11:40:39;;;;;;;;;5.75;3.00;;;;;10.65;67.56;100712.72;5071233;27;47112;-60
2022/01/08 11:43:08;;;;;;;;;6.00;4.00;;;;;10.66;67.57;100710.00;5070788;27;45790;-61
2022/01/08 11:45:40;;;;;;;;;5.00;3.75;;;;;10.68;67.48;100691.28;5061558;27;45469;-61
2022/01/08 11:48:09;;;;;;;;;5.25;3.00;;;;;10.67;68.09;100670.81;5063962;27;45394;-68
2022/01/08 11:50:37;;;;;;;;;3.50;3.50;;;;;10.64;68.19;100658.47;5076555;27;47592;-69
2022/01/08 11:53:12;;;;;;;;;5.25;4.25;;;;;10.68;67.69;100660.09;5077200;28;45739;-60
2022/01/08 11:55:38;;;;;;;;;5.75;3.00;;;;;10.67;68.08;100646.81;5077870;28;45516;-65
2022/01/08 11:58:34;;;;;;;;;6.50;5.00;;;;;10.68;68.30;100637.88;5070337;28;45584;-66